Terminal Aerodrome Forecast
Issued by NWS

Home | Current Version | Previous Version | Text Only | Print | Product List | Glossary On
Versions: 1 2 3 4 5 6 7 8 9 10 11
000
FTUS44 KMAF 270500
TAFCNM
TAF
KCNM 270532Z 2706/2806 36010KT 6SM -RASN SCT020 OVC035
      TEMPO 2706/2710 5SM BR BKN025
     FM271000 02006KT 5SM BR BKN020
     FM271900 02007KT 6SM -RA BKN040=

USA.gov is the U.S. government's official web portal to all federal, state and local government web resources and services.